sensor_id;sensor_type;location;lat;lon;timestamp;P1;durP1;ratioP1;P2;durP2;ratioP2
29876;SDS011;16750;49.002;9.204;2022-07-29T00:01:05;8.90;;;5.00;;
29876;SDS011;16750;49.002;9.204;2022-07-29T00:03:31;8.48;;;4.78;;
29876;SDS011;16750;49.002;9.204;2022-07-29T00:05:56;6.40;;;4.53;;
29876;SDS011;16750;49.002;9.204;2022-07-29T00:08:22;7.40;;;4.80;;
29876;SDS011;16750;49.002;9.204;2022-07-29T00:10:47;6.47;;;4.68;;
29876;SDS011;16750;49.002;9.204;2022-07-29T00:13:12;6.90;;;4.80;;
29876;SDS011;16750;49.002;9.204;2022-07-29T00:15:38;7.85;;;5.10;;
29876;SDS011;16750;49.002;9.204;2022-07-29T00:18:03;7.55;;;4.80;;
29876;SDS011;16750;49.002;9.204;2022-07-29T00:20:29;6.82;;;5.03;;
29876;SDS011;16750;49.002;9.204;2022-07-29T00:22:55;7.93;;;4.68;;
29876;SDS011;16750;49.002;9.204;2022-07-29T00:25:20;6.13;;;4.55;;
29876;SDS011;16750;49.002;9.204;2022-07-29T00:27:45;6.93;;;5.18;;
29876;SDS011;16750;49.002;9.204;2022-07-29T00:30:11;6.35;;;4.53;;
29876;SDS011;16750;49.002;9.204;2022-07-29T00:32:37;7.65;;;4.50;;
29876;SDS011;16750;49.002;9.204;2022-07-29T00:35:02;5.68;;;4.53;;
29876;SDS011;16750;49.002;9.204;2022-07-29T00:37:47;7.47;;;4.10;;
29876;SDS011;16750;49.002;9.204;2022-07-29T00:40:13;6.00;;;4.80;;
29876;SDS011;16750;49.002;9.204;2022-07-29T00:42:56;5.90;;;4.30;;
29876;SDS011;16750;49.002;9.204;2022-07-29T00:45:21;7.28;;;4.70;;
29876;SDS011;16750;49.002;9.204;2022-07-29T00:47:47;6.68;;;4.70;;
29876;SDS011;16750;49.002;9.204;2022-07-29T00:50:13;6.60;;;4.70;;
29876;SDS011;16750;49.002;9.204;2022-07-29T00:52:39;7.20;;;5.03;;
29876;SDS011;16750;49.002;9.204;2022-07-29T00:55:06;6.18;;;4.60;;
29876;SDS011;16750;49.002;9.204;2022-07-29T00:57:34;6.65;;;5.03;;
29876;SDS011;16750;49.002;9.204;2022-07-29T01:00:00;9.15;;;5.03;;
29876;SDS011;16750;49.002;9.204;2022-07-29T01:02:26;6.95;;;5.50;;
29876;SDS011;16750;49.002;9.204;2022-07-29T01:04:51;5.68;;;4.82;;
29876;SDS011;16750;49.002;9.204;2022-07-29T01:07:18;8.10;;;4.78;;
29876;SDS011;16750;49.002;9.204;2022-07-29T01:09:43;6.88;;;4.75;;
29876;SDS011;16750;49.002;9.204;2022-07-29T01:12:11;6.60;;;4.82;;
29876;SDS011;16750;49.002;9.204;2022-07-29T01:14:38;6.72;;;4.95;;
29876;SDS011;16750;49.002;9.204;2022-07-29T01:17:21;7.50;;;5.38;;
29876;SDS011;16750;49.002;9.204;2022-07-29T01:30:22;7.78;;;5.40;;
29876;SDS011;16750;49.002;9.204;2022-07-29T01:32:51;7.65;;;5.22;;
29876;SDS011;16750;49.002;9.204;2022-07-29T01:35:35;6.63;;;5.05;;
29876;SDS011;16750;49.002;9.204;2022-07-29T01:38:14;7.85;;;5.50;;
29876;SDS011;16750;49.002;9.204;2022-07-29T01:40:49;5.88;;;5.10;;
29876;SDS011;16750;49.002;9.204;2022-07-29T01:43:21;8.02;;;6.10;;
29876;SDS011;16750;49.002;9.204;2022-07-29T01:46:05;8.85;;;5.68;;
29876;SDS011;16750;49.002;9.204;2022-07-29T01:48:48;7.50;;;5.55;;
29876;SDS011;16750;49.002;9.204;2022-07-29T01:51:20;7.90;;;5.45;;
29876;SDS011;16750;49.002;9.204;2022-07-29T01:54:07;8.20;;;5.80;;
29876;SDS011;16750;49.002;9.204;2022-07-29T01:56:38;6.78;;;5.45;;
29876;SDS011;16750;49.002;9.204;2022-07-29T01:59:06;7.72;;;5.82;;
29876;SDS011;16750;49.002;9.204;2022-07-29T02:01:33;7.28;;;5.45;;
29876;SDS011;16750;49.002;9.204;2022-07-29T02:04:04;7.85;;;5.20;;
29876;SDS011;16750;49.002;9.204;2022-07-29T02:06:32;7.95;;;5.82;;
29876;SDS011;16750;49.002;9.204;2022-07-29T02:09:00;7.90;;;6.22;;
29876;SDS011;16750;49.002;9.204;2022-07-29T02:11:27;6.70;;;5.53;;
29876;SDS011;16750;49.002;9.204;2022-07-29T02:13:56;9.18;;;5.90;;
29876;SDS011;16750;49.002;9.204;2022-07-29T02:16:23;7.13;;;4.90;;
29876;SDS011;16750;49.002;9.204;2022-07-29T02:18:52;7.80;;;5.57;;
29876;SDS011;16750;49.002;9.204;2022-07-29T02:21:19;6.72;;;5.68;;
29876;SDS011;16750;49.002;9.204;2022-07-29T02:23:48;8.25;;;6.00;;
29876;SDS011;16750;49.002;9.204;2022-07-29T02:26:14;10.32;;;6.45;;
29876;SDS011;16750;49.002;9.204;2022-07-29T02:28:43;7.63;;;5.53;;
29876;SDS011;16750;49.002;9.204;2022-07-29T02:31:10;6.75;;;5.88;;
29876;SDS011;16750;49.002;9.204;2022-07-29T02:33:37;8.82;;;6.40;;
29876;SDS011;16750;49.002;9.204;2022-07-29T02:36:05;6.63;;;5.63;;
29876;SDS011;16750;49.002;9.204;2022-07-29T02:38:32;10.15;;;5.85;;
29876;SDS011;16750;49.002;9.204;2022-07-29T02:44:09;6.97;;;5.90;;
29876;SDS011;16750;49.002;9.204;2022-07-29T02:46:37;6.97;;;6.28;;
29876;SDS011;16750;49.002;9.204;2022-07-29T02:54:47;7.25;;;6.47;;
29876;SDS011;16750;49.002;9.204;2022-07-29T02:57:19;11.93;;;6.72;;
29876;SDS011;16750;49.002;9.204;2022-07-29T02:59:48;8.32;;;6.20;;
29876;SDS011;16750;49.002;9.204;2022-07-29T03:02:16;8.32;;;6.65;;
29876;SDS011;16750;49.002;9.204;2022-07-29T03:04:42;9.57;;;6.35;;
29876;SDS011;16750;49.002;9.204;2022-07-29T03:07:10;9.82;;;6.90;;
29876;SDS011;16750;49.002;9.204;2022-07-29T03:09:38;9.43;;;6.25;;
29876;SDS011;16750;49.002;9.204;2022-07-29T03:12:06;8.32;;;6.55;;
29876;SDS011;16750;49.002;9.204;2022-07-29T03:14:33;11.25;;;6.60;;
29876;SDS011;16750;49.002;9.204;2022-07-29T03:16:58;6.55;;;5.70;;
29876;SDS011;16750;49.002;9.204;2022-07-29T03:19:25;8.15;;;5.95;;
29876;SDS011;16750;49.002;9.204;2022-07-29T03:21:51;8.30;;;6.32;;
29876;SDS011;16750;49.002;9.204;2022-07-29T03:24:33;8.80;;;6.15;;
29876;SDS011;16750;49.002;9.204;2022-07-29T03:27:00;7.50;;;6.47;;
29876;SDS011;16750;49.002;9.204;2022-07-29T03:29:26;7.50;;;6.40;;
29876;SDS011;16750;49.002;9.204;2022-07-29T03:31:52;8.90;;;6.80;;
29876;SDS011;16750;49.002;9.204;2022-07-29T03:34:18;8.60;;;6.80;;
29876;SDS011;16750;49.002;9.204;2022-07-29T03:36:44;8.90;;;6.60;;
29876;SDS011;16750;49.002;9.204;2022-07-29T03:39:09;10.90;;;6.57;;
29876;SDS011;16750;49.002;9.204;2022-07-29T03:41:39;9.38;;;6.80;;
29876;SDS011;16750;49.002;9.204;2022-07-29T03:44:07;9.25;;;6.75;;
29876;SDS011;16750;49.002;9.204;2022-07-29T03:46:34;8.45;;;6.80;;
29876;SDS011;16750;49.002;9.204;2022-07-29T03:49:01;8.60;;;6.53;;
29876;SDS011;16750;49.002;9.204;2022-07-29T03:51:29;7.43;;;6.65;;
29876;SDS011;16750;49.002;9.204;2022-07-29T03:53:55;12.93;;;8.35;;
29876;SDS011;16750;49.002;9.204;2022-07-29T03:56:21;9.00;;;7.30;;
29876;SDS011;16750;49.002;9.204;2022-07-29T03:58:49;8.52;;;6.63;;
29876;SDS011;16750;49.002;9.204;2022-07-29T04:01:16;8.63;;;6.40;;
29876;SDS011;16750;49.002;9.204;2022-07-29T04:03:43;8.68;;;6.53;;
29876;SDS011;16750;49.002;9.204;2022-07-29T04:06:12;7.63;;;6.65;;
29876;SDS011;16750;49.002;9.204;2022-07-29T04:08:38;10.20;;;7.15;;
29876;SDS011;16750;49.002;9.204;2022-07-29T04:11:03;8.85;;;6.80;;
29876;SDS011;16750;49.002;9.204;2022-07-29T04:13:30;8.90;;;6.47;;
29876;SDS011;16750;49.002;9.204;2022-07-29T04:15:56;9.27;;;6.75;;
29876;SDS011;16750;49.002;9.204;2022-07-29T04:18:22;10.25;;;7.05;;
29876;SDS011;16750;49.002;9.204;2022-07-29T04:20:48;10.60;;;6.70;;
29876;SDS011;16750;49.002;9.204;2022-07-29T04:23:13;10.85;;;7.07;;
29876;SDS011;16750;49.002;9.204;2022-07-29T04:25:39;11.70;;;6.82;;
29876;SDS011;16750;49.002;9.204;2022-07-29T04:28:05;11.55;;;7.25;;
29876;SDS011;16750;49.002;9.204;2022-07-29T04:30:32;13.27;;;6.93;;
29876;SDS011;16750;49.002;9.204;2022-07-29T04:32:59;11.27;;;6.57;;
29876;SDS011;16750;49.002;9.204;2022-07-29T04:35:26;13.88;;;6.35;;
29876;SDS011;16750;49.002;9.204;2022-07-29T04:37:52;13.48;;;6.63;;
29876;SDS011;16750;49.002;9.204;2022-07-29T04:40:18;10.23;;;6.53;;
29876;SDS011;16750;49.002;9.204;2022-07-29T04:42:43;11.70;;;6.47;;
29876;SDS011;16750;49.002;9.204;2022-07-29T04:45:09;13.57;;;6.85;;
29876;SDS011;16750;49.002;9.204;2022-07-29T04:47:34;10.18;;;6.20;;
29876;SDS011;16750;49.002;9.204;2022-07-29T04:50:00;10.25;;;6.43;;
29876;SDS011;16750;49.002;9.204;2022-07-29T04:52:25;8.00;;;6.00;;
29876;SDS011;16750;49.002;9.204;2022-07-29T04:54:51;14.52;;;6.70;;
29876;SDS011;16750;49.002;9.204;2022-07-29T04:57:16;10.43;;;6.32;;
29876;SDS011;16750;49.002;9.204;2022-07-29T04:59:41;9.05;;;6.53;;
29876;SDS011;16750;49.002;9.204;2022-07-29T05:02:07;10.20;;;6.20;;
29876;SDS011;16750;49.002;9.204;2022-07-29T05:04:32;9.35;;;5.57;;
29876;SDS011;16750;49.002;9.204;2022-07-29T05:06:58;7.03;;;5.88;;
29876;SDS011;16750;49.002;9.204;2022-07-29T05:09:23;9.73;;;5.43;;
29876;SDS011;16750;49.002;9.204;2022-07-29T05:11:49;12.70;;;5.72;;
29876;SDS011;16750;49.002;9.204;2022-07-29T05:14:14;12.00;;;6.03;;
29876;SDS011;16750;49.002;9.204;2022-07-29T05:16:40;11.43;;;5.70;;
29876;SDS011;16750;49.002;9.204;2022-07-29T05:19:05;9.88;;;5.57;;
29876;SDS011;16750;49.002;9.204;2022-07-29T05:21:31;10.10;;;6.03;;
29876;SDS011;16750;49.002;9.204;2022-07-29T05:23:57;10.65;;;5.90;;
29876;SDS011;16750;49.002;9.204;2022-07-29T05:26:22;10.25;;;6.28;;
29876;SDS011;16750;49.002;9.204;2022-07-29T05:28:47;14.30;;;6.05;;
29876;SDS011;16750;49.002;9.204;2022-07-29T05:31:13;12.75;;;5.85;;
29876;SDS011;16750;49.002;9.204;2022-07-29T05:33:39;8.73;;;5.18;;
29876;SDS011;16750;49.002;9.204;2022-07-29T05:36:05;8.95;;;5.03;;
29876;SDS011;16750;49.002;9.204;2022-07-29T05:38:31;8.50;;;5.10;;
29876;SDS011;16750;49.002;9.204;2022-07-29T05:40:58;12.15;;;5.13;;
29876;SDS011;16750;49.002;9.204;2022-07-29T05:43:24;12.38;;;5.72;;
29876;SDS011;16750;49.002;9.204;2022-07-29T05:45:49;13.45;;;5.47;;
29876;SDS011;16750;49.002;9.204;2022-07-29T05:48:15;9.20;;;5.50;;
29876;SDS011;16750;49.002;9.204;2022-07-29T05:50:40;10.93;;;4.93;;
29876;SDS011;16750;49.002;9.204;2022-07-29T05:53:05;12.00;;;5.72;;
29876;SDS011;16750;49.002;9.204;2022-07-29T05:55:31;11.00;;;5.25;;
29876;SDS011;16750;49.002;9.204;2022-07-29T05:57:56;11.95;;;4.65;;
29876;SDS011;16750;49.002;9.204;2022-07-29T06:00:22;12.35;;;4.85;;
29876;SDS011;16750;49.002;9.204;2022-07-29T06:02:47;11.85;;;5.20;;
29876;SDS011;16750;49.002;9.204;2022-07-29T06:05:13;11.55;;;4.90;;
29876;SDS011;16750;49.002;9.204;2022-07-29T06:07:40;11.05;;;5.05;;
29876;SDS011;16750;49.002;9.204;2022-07-29T06:10:05;9.43;;;4.97;;
29876;SDS011;16750;49.002;9.204;2022-07-29T06:12:31;12.43;;;4.57;;
29876;SDS011;16750;49.002;9.204;2022-07-29T06:14:56;12.75;;;5.20;;
29876;SDS011;16750;49.002;9.204;2022-07-29T06:17:22;13.45;;;4.60;;
29876;SDS011;16750;49.002;9.204;2022-07-29T06:19:48;11.93;;;4.50;;
29876;SDS011;16750;49.002;9.204;2022-07-29T06:22:15;8.85;;;4.05;;
29876;SDS011;16750;49.002;9.204;2022-07-29T06:24:41;6.88;;;4.18;;
29876;SDS011;16750;49.002;9.204;2022-07-29T06:27:09;10.52;;;4.30;;
29876;SDS011;16750;49.002;9.204;2022-07-29T06:29:35;11.40;;;4.45;;
29876;SDS011;16750;49.002;9.204;2022-07-29T06:32:01;7.07;;;3.85;;
29876;SDS011;16750;49.002;9.204;2022-07-29T06:34:27;8.73;;;4.28;;
29876;SDS011;16750;49.002;9.204;2022-07-29T06:36:52;11.63;;;4.43;;
29876;SDS011;16750;49.002;9.204;2022-07-29T06:39:18;9.77;;;4.10;;
29876;SDS011;16750;49.002;9.204;2022-07-29T06:41:46;8.38;;;3.83;;
29876;SDS011;16750;49.002;9.204;2022-07-29T06:44:12;8.25;;;3.47;;
29876;SDS011;16750;49.002;9.204;2022-07-29T06:46:38;8.18;;;3.75;;
29876;SDS011;16750;49.002;9.204;2022-07-29T06:49:04;10.82;;;3.67;;
29876;SDS011;16750;49.002;9.204;2022-07-29T06:51:29;8.07;;;3.50;;
29876;SDS011;16750;49.002;9.204;2022-07-29T06:53:55;8.73;;;3.50;;
29876;SDS011;16750;49.002;9.204;2022-07-29T06:56:22;9.27;;;4.20;;
29876;SDS011;16750;49.002;9.204;2022-07-29T06:58:48;4.32;;;3.20;;
29876;SDS011;16750;49.002;9.204;2022-07-29T07:01:13;5.78;;;2.97;;
29876;SDS011;16750;49.002;9.204;2022-07-29T07:03:39;7.82;;;2.97;;
29876;SDS011;16750;49.002;9.204;2022-07-29T07:06:04;5.53;;;2.90;;
29876;SDS011;16750;49.002;9.204;2022-07-29T07:08:30;7.13;;;3.17;;
29876;SDS011;16750;49.002;9.204;2022-07-29T07:10:55;6.75;;;2.90;;
29876;SDS011;16750;49.002;9.204;2022-07-29T07:13:22;5.32;;;2.60;;
29876;SDS011;16750;49.002;9.204;2022-07-29T07:15:48;5.05;;;2.60;;
29876;SDS011;16750;49.002;9.204;2022-07-29T07:18:14;5.40;;;2.53;;
29876;SDS011;16750;49.002;9.204;2022-07-29T07:20:40;6.15;;;2.72;;
29876;SDS011;16750;49.002;9.204;2022-07-29T07:23:06;4.15;;;2.60;;
29876;SDS011;16750;49.002;9.204;2022-07-29T07:25:32;4.18;;;2.60;;
29876;SDS011;16750;49.002;9.204;2022-07-29T07:27:57;3.95;;;2.55;;
29876;SDS011;16750;49.002;9.204;2022-07-29T07:30:23;6.82;;;2.63;;
29876;SDS011;16750;49.002;9.204;2022-07-29T07:32:48;6.88;;;3.05;;
29876;SDS011;16750;49.002;9.204;2022-07-29T07:35:14;6.97;;;2.80;;
29876;SDS011;16750;49.002;9.204;2022-07-29T07:37:39;5.35;;;2.58;;
29876;SDS011;16750;49.002;9.204;2022-07-29T07:40:06;4.70;;;2.53;;
29876;SDS011;16750;49.002;9.204;2022-07-29T07:42:32;4.82;;;3.00;;
29876;SDS011;16750;49.002;9.204;2022-07-29T07:44:58;4.65;;;2.55;;
29876;SDS011;16750;49.002;9.204;2022-07-29T07:47:23;8.25;;;3.03;;
29876;SDS011;16750;49.002;9.204;2022-07-29T07:49:49;6.55;;;2.55;;
29876;SDS011;16750;49.002;9.204;2022-07-29T07:52:16;4.28;;;2.75;;
29876;SDS011;16750;49.002;9.204;2022-07-29T07:54:43;7.38;;;3.25;;
29876;SDS011;16750;49.002;9.204;2022-07-29T07:57:10;6.78;;;2.72;;
29876;SDS011;16750;49.002;9.204;2022-07-29T07:59:36;5.07;;;2.92;;
29876;SDS011;16750;49.002;9.204;2022-07-29T08:02:01;4.88;;;2.53;;
29876;SDS011;16750;49.002;9.204;2022-07-29T08:04:27;4.68;;;2.88;;
29876;SDS011;16750;49.002;9.204;2022-07-29T08:06:52;5.07;;;2.45;;
29876;SDS011;16750;49.002;9.204;2022-07-29T08:09:22;3.65;;;2.40;;
29876;SDS011;16750;49.002;9.204;2022-07-29T08:11:49;4.22;;;2.42;;
29876;SDS011;16750;49.002;9.204;2022-07-29T08:14:15;7.20;;;2.60;;
29876;SDS011;16750;49.002;9.204;2022-07-29T08:16:40;5.25;;;2.60;;
29876;SDS011;16750;49.002;9.204;2022-07-29T08:19:07;4.20;;;2.60;;
29876;SDS011;16750;49.002;9.204;2022-07-29T08:21:32;4.10;;;2.80;;
29876;SDS011;16750;49.002;9.204;2022-07-29T08:23:58;4.18;;;2.35;;
29876;SDS011;16750;49.002;9.204;2022-07-29T08:26:42;5.25;;;2.58;;
29876;SDS011;16750;49.002;9.204;2022-07-29T08:29:08;7.00;;;2.83;;
29876;SDS011;16750;49.002;9.204;2022-07-29T08:31:35;4.95;;;2.55;;
29876;SDS011;16750;49.002;9.204;2022-07-29T08:34:02;5.50;;;2.65;;
29876;SDS011;16750;49.002;9.204;2022-07-29T08:36:28;7.35;;;2.42;;
29876;SDS011;16750;49.002;9.204;2022-07-29T08:38:53;7.50;;;3.03;;
29876;SDS011;16750;49.002;9.204;2022-07-29T08:41:19;5.22;;;2.80;;
29876;SDS011;16750;49.002;9.204;2022-07-29T08:43:45;5.75;;;2.70;;
29876;SDS011;16750;49.002;9.204;2022-07-29T08:46:11;5.85;;;2.75;;
29876;SDS011;16750;49.002;9.204;2022-07-29T08:48:36;5.45;;;2.90;;
29876;SDS011;16750;49.002;9.204;2022-07-29T08:51:01;5.80;;;2.97;;
29876;SDS011;16750;49.002;9.204;2022-07-29T08:53:28;5.47;;;3.00;;
29876;SDS011;16750;49.002;9.204;2022-07-29T08:55:54;6.30;;;3.00;;
29876;SDS011;16750;49.002;9.204;2022-07-29T08:58:20;5.05;;;3.05;;
29876;SDS011;16750;49.002;9.204;2022-07-29T09:00:50;7.00;;;2.88;;
29876;SDS011;16750;49.002;9.204;2022-07-29T09:03:18;8.38;;;2.67;;
29876;SDS011;16750;49.002;9.204;2022-07-29T09:05:45;7.22;;;3.70;;
29876;SDS011;16750;49.002;9.204;2022-07-29T09:08:15;4.80;;;3.22;;
29876;SDS011;16750;49.002;9.204;2022-07-29T09:10:42;5.45;;;3.33;;
29876;SDS011;16750;49.002;9.204;2022-07-29T09:13:08;8.55;;;3.58;;
29876;SDS011;16750;49.002;9.204;2022-07-29T09:15:33;5.82;;;3.10;;
29876;SDS011;16750;49.002;9.204;2022-07-29T09:17:59;5.63;;;2.92;;
29876;SDS011;16750;49.002;9.204;2022-07-29T09:20:25;4.70;;;3.08;;
29876;SDS011;16750;49.002;9.204;2022-07-29T09:23:11;6.57;;;3.20;;
29876;SDS011;16750;49.002;9.204;2022-07-29T09:25:39;6.20;;;3.08;;
29876;SDS011;16750;49.002;9.204;2022-07-29T09:28:15;6.45;;;3.05;;
29876;SDS011;16750;49.002;9.204;2022-07-29T09:33:17;4.93;;;3.00;;
29876;SDS011;16750;49.002;9.204;2022-07-29T09:35:43;6.40;;;3.15;;
29876;SDS011;16750;49.002;9.204;2022-07-29T09:38:12;7.65;;;3.00;;
29876;SDS011;16750;49.002;9.204;2022-07-29T09:40:38;5.68;;;2.72;;
29876;SDS011;16750;49.002;9.204;2022-07-29T09:43:10;4.63;;;2.63;;
29876;SDS011;16750;49.002;9.204;2022-07-29T09:45:36;5.88;;;3.03;;
29876;SDS011;16750;49.002;9.204;2022-07-29T09:50:46;4.72;;;2.65;;
29876;SDS011;16750;49.002;9.204;2022-07-29T09:56:02;4.32;;;2.63;;
29876;SDS011;16750;49.002;9.204;2022-07-29T09:58:28;6.15;;;2.60;;
29876;SDS011;16750;49.002;9.204;2022-07-29T10:00:56;5.88;;;2.90;;
29876;SDS011;16750;49.002;9.204;2022-07-29T10:03:21;5.40;;;2.70;;
29876;SDS011;16750;49.002;9.204;2022-07-29T10:06:04;4.70;;;3.00;;
29876;SDS011;16750;49.002;9.204;2022-07-29T10:08:30;4.13;;;2.67;;
29876;SDS011;16750;49.002;9.204;2022-07-29T10:11:08;8.48;;;2.92;;
29876;SDS011;16750;49.002;9.204;2022-07-29T10:13:41;4.25;;;2.70;;
29876;SDS011;16750;49.002;9.204;2022-07-29T10:16:08;5.00;;;2.30;;
29876;SDS011;16750;49.002;9.204;2022-07-29T10:18:34;5.13;;;2.67;;
29876;SDS011;16750;49.002;9.204;2022-07-29T10:21:00;4.13;;;2.50;;
29876;SDS011;16750;49.002;9.204;2022-07-29T10:23:26;5.60;;;2.53;;
29876;SDS011;16750;49.002;9.204;2022-07-29T10:25:53;5.65;;;3.00;;
29876;SDS011;16750;49.002;9.204;2022-07-29T10:28:19;5.03;;;2.83;;
29876;SDS011;16750;49.002;9.204;2022-07-29T10:30:44;5.47;;;2.50;;
29876;SDS011;16750;49.002;9.204;2022-07-29T10:33:17;5.57;;;2.63;;
29876;SDS011;16750;49.002;9.204;2022-07-29T10:44:29;5.78;;;2.80;;
29876;SDS011;16750;49.002;9.204;2022-07-29T10:46:55;6.03;;;2.58;;
29876;SDS011;16750;49.002;9.204;2022-07-29T10:49:25;5.32;;;3.13;;
29876;SDS011;16750;49.002;9.204;2022-07-29T10:52:02;9.75;;;2.80;;
29876;SDS011;16750;49.002;9.204;2022-07-29T10:57:13;8.13;;;2.60;;
29876;SDS011;16750;49.002;9.204;2022-07-29T10:59:41;5.65;;;2.50;;
29876;SDS011;16750;49.002;9.204;2022-07-29T11:07:31;5.25;;;2.67;;
29876;SDS011;16750;49.002;9.204;2022-07-29T11:15:02;4.50;;;2.80;;
29876;SDS011;16750;49.002;9.204;2022-07-29T11:17:30;6.25;;;2.85;;
29876;SDS011;16750;49.002;9.204;2022-07-29T11:20:33;5.70;;;2.45;;
29876;SDS011;16750;49.002;9.204;2022-07-29T11:22:59;6.10;;;2.78;;
29876;SDS011;16750;49.002;9.204;2022-07-29T11:25:25;5.75;;;2.47;;
29876;SDS011;16750;49.002;9.204;2022-07-29T11:27:52;4.53;;;2.10;;
29876;SDS011;16750;49.002;9.204;2022-07-29T11:33:29;5.93;;;2.17;;
29876;SDS011;16750;49.002;9.204;2022-07-29T11:38:38;5.72;;;2.53;;
29876;SDS011;16750;49.002;9.204;2022-07-29T11:46:14;5.85;;;2.42;;
29876;SDS011;16750;49.002;9.204;2022-07-29T11:48:43;7.38;;;2.67;;
29876;SDS011;16750;49.002;9.204;2022-07-29T11:51:10;4.45;;;2.50;;
29876;SDS011;16750;49.002;9.204;2022-07-29T11:53:36;5.68;;;2.90;;
29876;SDS011;16750;49.002;9.204;2022-07-29T11:56:03;5.50;;;2.63;;
29876;SDS011;16750;49.002;9.204;2022-07-29T11:58:32;5.55;;;2.58;;
29876;SDS011;16750;49.002;9.204;2022-07-29T12:00:59;4.28;;;2.70;;
29876;SDS011;16750;49.002;9.204;2022-07-29T12:03:26;5.85;;;2.53;;
29876;SDS011;16750;49.002;9.204;2022-07-29T12:05:52;5.50;;;2.30;;
29876;SDS011;16750;49.002;9.204;2022-07-29T12:08:20;5.35;;;2.53;;
29876;SDS011;16750;49.002;9.204;2022-07-29T12:10:47;5.13;;;2.72;;
29876;SDS011;16750;49.002;9.204;2022-07-29T12:13:14;5.55;;;2.33;;
29876;SDS011;16750;49.002;9.204;2022-07-29T12:15:42;4.95;;;2.50;;
29876;SDS011;16750;49.002;9.204;2022-07-29T12:18:17;4.95;;;2.17;;
29876;SDS011;16750;49.002;9.204;2022-07-29T12:20:45;5.00;;;2.47;;
29876;SDS011;16750;49.002;9.204;2022-07-29T12:23:11;4.32;;;2.10;;
29876;SDS011;16750;49.002;9.204;2022-07-29T12:25:37;6.43;;;2.10;;
29876;SDS011;16750;49.002;9.204;2022-07-29T12:28:04;5.80;;;2.63;;
29876;SDS011;16750;49.002;9.204;2022-07-29T12:30:42;5.97;;;2.17;;
29876;SDS011;16750;49.002;9.204;2022-07-29T12:35:44;5.75;;;2.10;;
29876;SDS011;16750;49.002;9.204;2022-07-29T12:38:12;7.38;;;2.60;;
29876;SDS011;16750;49.002;9.204;2022-07-29T12:40:38;8.00;;;3.10;;
29876;SDS011;16750;49.002;9.204;2022-07-29T12:43:05;6.70;;;2.95;;
29876;SDS011;16750;49.002;9.204;2022-07-29T12:45:40;6.28;;;2.38;;
29876;SDS011;16750;49.002;9.204;2022-07-29T12:48:07;5.28;;;2.83;;
29876;SDS011;16750;49.002;9.204;2022-07-29T12:50:34;10.35;;;3.00;;
29876;SDS011;16750;49.002;9.204;2022-07-29T12:53:10;8.15;;;2.83;;
29876;SDS011;16750;49.002;9.204;2022-07-29T12:55:37;7.20;;;3.13;;
29876;SDS011;16750;49.002;9.204;2022-07-29T12:58:07;5.50;;;2.55;;
29876;SDS011;16750;49.002;9.204;2022-07-29T13:00:33;6.65;;;2.70;;
29876;SDS011;16750;49.002;9.204;2022-07-29T13:02:59;9.45;;;3.08;;
29876;SDS011;16750;49.002;9.204;2022-07-29T13:05:38;10.48;;;2.88;;
29876;SDS011;16750;49.002;9.204;2022-07-29T13:08:10;5.50;;;2.85;;
29876;SDS011;16750;49.002;9.204;2022-07-29T13:10:37;4.93;;;2.65;;
29876;SDS011;16750;49.002;9.204;2022-07-29T13:15:34;7.25;;;3.03;;
29876;SDS011;16750;49.002;9.204;2022-07-29T13:18:00;6.00;;;2.78;;
29876;SDS011;16750;49.002;9.204;2022-07-29T13:20:27;7.35;;;2.70;;
29876;SDS011;16750;49.002;9.204;2022-07-29T13:22:57;7.13;;;2.53;;
29876;SDS011;16750;49.002;9.204;2022-07-29T13:25:25;7.35;;;2.70;;
29876;SDS011;16750;49.002;9.204;2022-07-29T13:27:53;6.82;;;2.55;;
29876;SDS011;16750;49.002;9.204;2022-07-29T13:30:20;5.50;;;2.30;;
29876;SDS011;16750;49.002;9.204;2022-07-29T13:32:46;7.13;;;2.65;;
29876;SDS011;16750;49.002;9.204;2022-07-29T13:35:12;6.32;;;2.63;;
29876;SDS011;16750;49.002;9.204;2022-07-29T13:37:38;6.47;;;2.50;;
29876;SDS011;16750;49.002;9.204;2022-07-29T13:40:04;5.60;;;2.35;;
29876;SDS011;16750;49.002;9.204;2022-07-29T13:42:33;5.45;;;2.58;;
29876;SDS011;16750;49.002;9.204;2022-07-29T13:44:59;9.25;;;2.40;;
29876;SDS011;16750;49.002;9.204;2022-07-29T13:47:26;7.38;;;2.47;;
29876;SDS011;16750;49.002;9.204;2022-07-29T13:49:51;5.80;;;2.38;;
29876;SDS011;16750;49.002;9.204;2022-07-29T13:52:18;6.45;;;2.60;;
29876;SDS011;16750;49.002;9.204;2022-07-29T13:54:44;6.47;;;2.45;;
29876;SDS011;16750;49.002;9.204;2022-07-29T13:57:10;6.47;;;2.83;;
29876;SDS011;16750;49.002;9.204;2022-07-29T13:59:36;5.57;;;2.45;;
29876;SDS011;16750;49.002;9.204;2022-07-29T14:02:02;4.25;;;2.10;;
29876;SDS011;16750;49.002;9.204;2022-07-29T14:04:28;7.07;;;2.33;;
29876;SDS011;16750;49.002;9.204;2022-07-29T14:06:53;5.00;;;2.13;;
29876;SDS011;16750;49.002;9.204;2022-07-29T14:09:19;5.40;;;1.98;;
29876;SDS011;16750;49.002;9.204;2022-07-29T14:11:44;4.63;;;2.10;;
29876;SDS011;16750;49.002;9.204;2022-07-29T14:14:11;5.03;;;2.30;;
29876;SDS011;16750;49.002;9.204;2022-07-29T14:16:36;5.32;;;2.25;;
29876;SDS011;16750;49.002;9.204;2022-07-29T14:19:02;3.47;;;2.00;;
29876;SDS011;16750;49.002;9.204;2022-07-29T14:21:28;5.63;;;2.30;;
29876;SDS011;16750;49.002;9.204;2022-07-29T14:23:53;4.57;;;2.05;;
29876;SDS011;16750;49.002;9.204;2022-07-29T14:26:20;6.45;;;2.20;;
29876;SDS011;16750;49.002;9.204;2022-07-29T14:28:46;5.82;;;2.00;;
29876;SDS011;16750;49.002;9.204;2022-07-29T14:31:11;6.15;;;2.05;;
29876;SDS011;16750;49.002;9.204;2022-07-29T14:33:37;6.20;;;2.00;;
29876;SDS011;16750;49.002;9.204;2022-07-29T14:36:03;5.35;;;2.00;;
29876;SDS011;16750;49.002;9.204;2022-07-29T14:38:28;4.90;;;2.25;;
29876;SDS011;16750;49.002;9.204;2022-07-29T14:40:54;6.55;;;1.80;;
29876;SDS011;16750;49.002;9.204;2022-07-29T14:43:19;4.32;;;1.70;;
29876;SDS011;16750;49.002;9.204;2022-07-29T14:45:45;3.08;;;1.90;;
29876;SDS011;16750;49.002;9.204;2022-07-29T14:48:10;4.00;;;1.70;;
29876;SDS011;16750;49.002;9.204;2022-07-29T14:50:36;5.10;;;1.80;;
29876;SDS011;16750;49.002;9.204;2022-07-29T14:53:02;5.53;;;2.00;;
29876;SDS011;16750;49.002;9.204;2022-07-29T14:55:28;5.93;;;1.98;;
29876;SDS011;16750;49.002;9.204;2022-07-29T14:57:53;6.68;;;1.90;;
29876;SDS011;16750;49.002;9.204;2022-07-29T15:00:19;4.72;;;1.60;;
29876;SDS011;16750;49.002;9.204;2022-07-29T15:02:45;4.05;;;1.55;;
29876;SDS011;16750;49.002;9.204;2022-07-29T15:05:11;6.72;;;1.70;;
29876;SDS011;16750;49.002;9.204;2022-07-29T15:07:37;3.80;;;1.60;;
29876;SDS011;16750;49.002;9.204;2022-07-29T15:10:02;5.97;;;1.70;;
29876;SDS011;16750;49.002;9.204;2022-07-29T15:12:29;2.92;;;1.55;;
29876;SDS011;16750;49.002;9.204;2022-07-29T15:14:55;8.52;;;1.50;;
29876;SDS011;16750;49.002;9.204;2022-07-29T15:17:21;5.38;;;1.33;;
29876;SDS011;16750;49.002;9.204;2022-07-29T15:19:46;2.97;;;1.30;;
29876;SDS011;16750;49.002;9.204;2022-07-29T15:22:12;6.22;;;1.48;;
29876;SDS011;16750;49.002;9.204;2022-07-29T15:24:37;3.28;;;1.27;;
29876;SDS011;16750;49.002;9.204;2022-07-29T15:27:03;8.05;;;2.17;;
29876;SDS011;16750;49.002;9.204;2022-07-29T15:29:29;5.35;;;1.30;;
29876;SDS011;16750;49.002;9.204;2022-07-29T15:31:54;4.63;;;1.42;;
29876;SDS011;16750;49.002;9.204;2022-07-29T15:34:19;5.35;;;1.38;;
29876;SDS011;16750;49.002;9.204;2022-07-29T15:36:46;5.90;;;1.23;;
29876;SDS011;16750;49.002;9.204;2022-07-29T15:39:11;3.20;;;1.25;;
29876;SDS011;16750;49.002;9.204;2022-07-29T15:41:37;3.50;;;1.15;;
29876;SDS011;16750;49.002;9.204;2022-07-29T15:44:02;4.75;;;1.27;;
29876;SDS011;16750;49.002;9.204;2022-07-29T15:46:28;3.15;;;1.08;;
29876;SDS011;16750;49.002;9.204;2022-07-29T15:49:12;2.90;;;1.15;;
29876;SDS011;16750;49.002;9.204;2022-07-29T15:51:37;4.20;;;1.10;;